createdAt,value
2019-03-17T00:00:51.506Z,996.24
2019-03-17T00:01:57.202Z,996.23
2019-03-17T00:02:52.455Z,996.24
2019-03-17T00:03:51.447Z,996.22
2019-03-17T00:04:51.436Z,996.24
2019-03-17T00:05:51.451Z,996.21
2019-03-17T00:06:51.414Z,996.23
2019-03-17T00:07:51.401Z,996.24
2019-03-17T00:08:51.394Z,996.20
2019-03-17T00:09:51.381Z,996.19
2019-03-17T00:10:52.641Z,996.16
2019-03-17T00:11:51.358Z,996.10
2019-03-17T00:12:51.348Z,996.10
2019-03-17T00:13:51.339Z,996.13
2019-03-17T00:15:04.310Z,996.12
2019-03-17T00:15:52.344Z,996.10
2019-03-17T00:16:51.304Z,996.08
2019-03-17T00:17:51.298Z,996.06
2019-03-17T00:18:51.331Z,996.06
2019-03-17T00:19:51.273Z,996.05
2019-03-17T00:20:51.294Z,995.96
2019-03-17T00:21:51.249Z,995.94
2019-03-17T00:22:51.242Z,995.91
2019-03-17T00:23:51.230Z,995.89
2019-03-17T00:24:51.218Z,995.87
2019-03-17T00:25:51.231Z,995.87
2019-03-17T00:26:51.195Z,995.90
2019-03-17T00:27:51.202Z,995.86
2019-03-17T00:28:51.175Z,995.85
2019-03-17T00:29:51.165Z,995.84
2019-03-17T00:30:51.178Z,995.69
2019-03-17T00:31:51.141Z,995.78
2019-03-17T00:32:51.130Z,995.68
2019-03-17T00:33:51.121Z,995.79
2019-03-17T00:34:51.242Z,995.74
2019-03-17T00:35:51.127Z,995.67
2019-03-17T00:36:51.092Z,995.65
2019-03-17T00:37:51.079Z,995.67
2019-03-17T00:38:51.066Z,995.63
2019-03-17T00:39:51.057Z,995.62
2019-03-17T00:40:51.070Z,995.63
2019-03-17T00:41:51.041Z,995.63
2019-03-17T00:42:51.028Z,995.64
2019-03-17T00:43:51.022Z,995.44
2019-03-17T00:44:51.005Z,995.45
2019-03-17T00:45:51.018Z,995.46
2019-03-17T00:46:50.981Z,995.47
2019-03-17T00:47:50.969Z,995.36
2019-03-17T00:48:50.964Z,995.38
2019-03-17T00:49:50.949Z,995.35
2019-03-17T00:50:50.967Z,995.37
2019-03-17T00:51:50.926Z,995.40
2019-03-17T00:52:50.916Z,995.28
2019-03-17T00:53:50.905Z,995.24
2019-03-17T00:54:50.894Z,995.32
2019-03-17T00:55:50.911Z,995.33
2019-03-17T00:56:50.887Z,995.27
2019-03-17T00:57:50.863Z,995.22
2019-03-17T00:58:50.854Z,995.21
2019-03-17T00:59:50.842Z,995.17
2019-03-17T01:00:50.855Z,995.10
2019-03-17T01:01:50.823Z,995.05
2019-03-17T01:02:50.812Z,995.08
2019-03-17T01:03:50.803Z,995.08
2019-03-17T01:04:56.137Z,995.04
2019-03-17T01:05:51.804Z,995.07
2019-03-17T01:06:50.773Z,995.06
2019-03-17T01:07:50.755Z,995.10
2019-03-17T01:08:50.744Z,995.05
2019-03-17T01:09:50.734Z,995.06
2019-03-17T01:10:50.747Z,995.07
2019-03-17T01:11:50.713Z,995.06
2019-03-17T01:12:50.707Z,995.08
2019-03-17T01:13:50.697Z,995.05
2019-03-17T01:14:50.679Z,994.99
2019-03-17T01:15:50.693Z,995.04
2019-03-17T01:16:50.657Z,995.08
2019-03-17T01:17:50.647Z,995.13
2019-03-17T01:18:50.635Z,995.06
2019-03-17T01:19:50.627Z,995.11
2019-03-17T01:20:50.640Z,995.05
2019-03-17T01:21:50.603Z,995.04
2019-03-17T01:22:50.593Z,995.02
2019-03-17T01:23:50.583Z,994.99
2019-03-17T01:24:50.572Z,994.96
2019-03-17T01:25:50.584Z,994.97
2019-03-17T01:26:50.548Z,994.94
2019-03-17T01:27:50.541Z,994.94
2019-03-17T01:28:50.528Z,994.93
2019-03-17T01:29:50.517Z,995.00
2019-03-17T01:30:50.531Z,994.93
2019-03-17T01:31:50.503Z,994.96
2019-03-17T01:32:50.484Z,994.95
2019-03-17T01:33:50.474Z,994.94
2019-03-17T01:34:50.460Z,994.84
2019-03-17T01:35:50.479Z,994.91
2019-03-17T01:36:50.439Z,994.91
2019-03-17T01:37:50.432Z,994.92
2019-03-17T01:38:50.423Z,994.91
2019-03-17T01:39:50.407Z,994.89
2019-03-17T01:40:50.423Z,994.88
2019-03-17T01:41:50.385Z,994.88
2019-03-17T01:42:50.374Z,994.90
2019-03-17T01:43:50.363Z,994.88
2019-03-17T01:44:50.354Z,994.82
2019-03-17T01:45:50.368Z,994.82
2019-03-17T01:46:50.330Z,994.87
2019-03-17T01:47:50.365Z,994.80
2019-03-17T01:48:50.311Z,994.85
2019-03-17T01:49:50.299Z,994.81
2019-03-17T01:50:50.310Z,994.76
2019-03-17T01:51:50.278Z,994.82
2019-03-17T01:52:50.266Z,994.75
2019-03-17T01:53:50.255Z,994.75
2019-03-17T01:54:50.245Z,994.66
2019-03-17T01:55:50.257Z,994.74
2019-03-17T01:56:50.281Z,994.73
2019-03-17T01:57:50.211Z,994.71
2019-03-17T01:58:50.200Z,994.71
2019-03-17T01:59:50.190Z,994.73
2019-03-17T02:00:50.207Z,994.68
2019-03-17T02:01:50.176Z,994.71
2019-03-17T02:02:50.157Z,994.69
2019-03-17T02:03:50.149Z,994.65
2019-03-17T02:04:50.137Z,994.66
2019-03-17T02:05:50.147Z,994.66
2019-03-17T02:06:50.115Z,994.64
2019-03-17T02:07:50.103Z,994.67
2019-03-17T02:08:50.093Z,994.68
2019-03-17T02:09:50.092Z,994.68
2019-03-17T02:10:50.099Z,994.62
2019-03-17T02:11:50.062Z,994.60
2019-03-17T02:12:50.050Z,994.59
2019-03-17T02:13:50.039Z,994.55
2019-03-17T02:14:50.030Z,994.64
2019-03-17T02:15:50.045Z,994.60
2019-03-17T02:16:50.009Z,994.55
2019-03-17T02:17:50.001Z,994.55
2019-03-17T02:18:49.988Z,994.57
2019-03-17T02:19:49.975Z,994.61
2019-03-17T02:20:49.987Z,994.56
2019-03-17T02:21:49.962Z,994.60
2019-03-17T02:22:49.942Z,994.55
2019-03-17T02:23:49.930Z,994.56
2019-03-17T02:24:49.917Z,994.48
2019-03-17T02:25:49.934Z,994.47
2019-03-17T02:26:49.896Z,994.52
2019-03-17T02:27:49.887Z,994.51
2019-03-17T02:28:49.873Z,994.49
2019-03-17T02:29:49.866Z,994.54
2019-03-17T02:30:49.900Z,994.51
2019-03-17T02:31:49.848Z,994.52
2019-03-17T02:32:49.833Z,994.56
2019-03-17T02:33:49.820Z,994.49
2019-03-17T02:34:49.825Z,994.48
2019-03-17T02:35:49.821Z,994.41
2019-03-17T02:36:49.787Z,994.42
2019-03-17T02:37:49.779Z,994.42
2019-03-17T02:38:49.766Z,994.33
2019-03-17T02:39:49.756Z,994.42
2019-03-17T02:40:49.774Z,994.35
2019-03-17T02:41:49.733Z,994.34
2019-03-17T02:42:49.722Z,994.29
2019-03-17T02:43:49.722Z,994.34
2019-03-17T02:44:49.744Z,994.34
2019-03-17T02:45:49.715Z,994.34
2019-03-17T02:46:49.679Z,994.34
2019-03-17T02:47:49.669Z,994.28
2019-03-17T02:48:49.661Z,994.39
2019-03-17T02:49:49.647Z,994.35
2019-03-17T02:50:49.664Z,994.34
2019-03-17T02:51:49.629Z,994.27
2019-03-17T02:52:49.614Z,994.28
2019-03-17T02:53:49.603Z,994.34
2019-03-17T02:54:49.595Z,994.31
2019-03-17T02:55:49.618Z,994.26
2019-03-17T02:56:49.570Z,994.29
2019-03-17T02:57:49.563Z,994.22
2019-03-17T02:58:49.549Z,994.20
2019-03-17T02:59:49.541Z,994.24
2019-03-17T03:00:49.551Z,994.13
2019-03-17T03:01:49.515Z,994.25
2019-03-17T03:02:49.504Z,994.22
2019-03-17T03:03:49.495Z,994.25
2019-03-17T03:04:49.482Z,994.23
2019-03-17T03:05:55.383Z,994.22
2019-03-17T03:06:50.459Z,994.18
2019-03-17T03:07:49.450Z,994.14
2019-03-17T03:08:49.446Z,994.16
2019-03-17T03:09:49.428Z,994.19
2019-03-17T03:10:49.447Z,994.19
2019-03-17T03:11:49.408Z,994.16
2019-03-17T03:12:49.423Z,994.11
2019-03-17T03:13:49.383Z,994.13
2019-03-17T03:14:49.373Z,994.06
2019-03-17T03:15:49.393Z,994.10
2019-03-17T03:16:49.354Z,994.08
2019-03-17T03:17:49.342Z,994.03
2019-03-17T03:18:49.330Z,994.01
2019-03-17T03:19:49.318Z,994.02
2019-03-17T03:20:49.335Z,994.03
2019-03-17T03:21:49.297Z,993.99
2019-03-17T03:22:49.286Z,993.97
2019-03-17T03:23:49.274Z,993.93
2019-03-17T03:24:49.265Z,993.90
2019-03-17T03:25:49.283Z,993.88
2019-03-17T03:26:49.248Z,993.93
2019-03-17T03:27:49.348Z,993.86
2019-03-17T03:28:49.221Z,993.88
2019-03-17T03:29:49.208Z,993.88
2019-03-17T03:30:49.223Z,993.92
2019-03-17T03:31:49.209Z,993.89
2019-03-17T03:32:49.186Z,993.89
2019-03-17T03:33:49.174Z,993.88
2019-03-17T03:34:49.157Z,993.91
2019-03-17T03:35:49.178Z,993.92
2019-03-17T03:36:49.133Z,993.92
2019-03-17T03:37:49.122Z,993.97
2019-03-17T03:38:49.111Z,993.95
2019-03-17T03:39:49.100Z,993.90
2019-03-17T03:40:49.113Z,993.87
2019-03-17T03:41:49.081Z,993.84
2019-03-17T03:42:49.072Z,993.89
2019-03-17T03:43:49.056Z,993.87
2019-03-17T03:44:49.047Z,993.90
2019-03-17T03:45:49.060Z,993.87
2019-03-17T03:46:49.024Z,993.89
2019-03-17T03:47:49.016Z,993.88
2019-03-17T03:48:49.005Z,993.85
2019-03-17T03:49:48.994Z,993.84
2019-03-17T03:50:49.008Z,993.76
2019-03-17T03:51:48.971Z,993.75
2019-03-17T03:52:48.975Z,993.74
2019-03-17T03:53:48.951Z,993.80
2019-03-17T03:54:48.949Z,993.74
2019-03-17T03:55:48.954Z,993.72
2019-03-17T03:56:48.918Z,993.70
2019-03-17T03:57:48.911Z,993.64
2019-03-17T03:58:48.895Z,993.66
2019-03-17T03:59:48.912Z,993.62
2019-03-17T04:00:48.900Z,993.61
2019-03-17T04:01:48.863Z,993.63
2019-03-17T04:02:48.853Z,993.62
2019-03-17T04:03:48.856Z,993.62
2019-03-17T04:04:48.838Z,993.62
2019-03-17T04:05:48.862Z,993.61
2019-03-17T04:06:48.813Z,993.58
2019-03-17T04:07:48.798Z,993.62
2019-03-17T04:08:48.793Z,993.63
2019-03-17T04:09:48.778Z,993.62
2019-03-17T04:10:48.812Z,993.62
2019-03-17T04:11:48.753Z,993.55
2019-03-17T04:12:48.747Z,993.57
2019-03-17T04:13:55.775Z,993.60
2019-03-17T04:14:48.724Z,993.51
2019-03-17T04:15:48.739Z,993.55
2019-03-17T04:16:48.701Z,993.51
2019-03-17T04:17:48.715Z,993.47
2019-03-17T04:18:48.682Z,993.51
2019-03-17T04:19:48.678Z,993.48
2019-03-17T04:20:48.745Z,993.50
2019-03-17T04:21:48.648Z,993.53
2019-03-17T04:22:48.638Z,993.49
2019-03-17T04:23:48.628Z,993.50
2019-03-17T04:24:48.618Z,993.45
2019-03-17T04:25:48.633Z,993.47
2019-03-17T04:26:48.598Z,993.44
2019-03-17T04:27:48.587Z,993.41
2019-03-17T04:28:48.581Z,993.39
2019-03-17T04:29:48.565Z,993.42
2019-03-17T04:30:48.582Z,993.30
2019-03-17T04:31:48.547Z,993.32
2019-03-17T04:32:48.535Z,993.34
2019-03-17T04:33:48.523Z,993.28
2019-03-17T04:34:48.520Z,993.30
2019-03-17T04:35:48.528Z,993.35
2019-03-17T04:36:48.496Z,993.32
2019-03-17T04:37:48.485Z,993.33
2019-03-17T04:38:48.473Z,993.32
2019-03-17T04:39:48.461Z,993.27
2019-03-17T04:40:48.566Z,993.27
2019-03-17T04:41:48.438Z,993.25
2019-03-17T04:42:48.437Z,993.23
2019-03-17T04:43:48.421Z,993.19
2019-03-17T04:44:48.408Z,993.21
2019-03-17T04:45:48.420Z,993.19
2019-03-17T04:46:48.390Z,993.24
2019-03-17T04:47:48.378Z,993.19
2019-03-17T04:48:48.474Z,993.17
2019-03-17T04:49:48.357Z,993.13
2019-03-17T04:50:48.370Z,993.03
2019-03-17T04:51:48.332Z,993.10
2019-03-17T04:52:48.323Z,993.13
2019-03-17T04:53:48.311Z,993.19
2019-03-17T04:54:48.303Z,993.14
2019-03-17T04:55:48.317Z,993.16
2019-03-17T04:56:48.282Z,993.05
2019-03-17T04:57:48.274Z,993.04
2019-03-17T04:58:48.262Z,993.10
2019-03-17T04:59:48.249Z,993.02
2019-03-17T05:00:48.322Z,993.03
2019-03-17T05:01:48.228Z,993.03
2019-03-17T05:02:48.219Z,992.99
2019-03-17T05:03:48.213Z,993.04
2019-03-17T05:04:48.197Z,993.02
2019-03-17T05:05:48.212Z,993.05
2019-03-17T05:06:52.896Z,993.16
2019-03-17T05:07:49.164Z,993.07
2019-03-17T05:08:48.155Z,993.12
2019-03-17T05:09:48.144Z,993.07
2019-03-17T05:10:48.164Z,993.07
2019-03-17T05:11:48.125Z,993.10
2019-03-17T05:12:48.112Z,993.13
2019-03-17T05:13:48.101Z,993.06
2019-03-17T05:14:48.091Z,993.02
2019-03-17T05:15:48.109Z,993.07
2019-03-17T05:16:48.069Z,993.07
2019-03-17T05:17:48.062Z,992.96
2019-03-17T05:18:48.048Z,992.97
2019-03-17T05:19:48.040Z,992.94
2019-03-17T05:20:48.056Z,992.96
2019-03-17T05:21:48.023Z,992.79
2019-03-17T05:22:48.012Z,992.82
2019-03-17T05:23:48.000Z,992.85
2019-03-17T05:24:47.985Z,992.91
2019-03-17T05:25:48.003Z,992.75
2019-03-17T05:26:47.967Z,992.73
2019-03-17T05:27:47.953Z,992.76
2019-03-17T05:28:47.945Z,992.76
2019-03-17T05:29:47.931Z,992.73
2019-03-17T05:30:47.951Z,992.75
2019-03-17T05:31:47.911Z,992.70
2019-03-17T05:32:47.906Z,992.74
2019-03-17T05:33:47.897Z,992.71
2019-03-17T05:34:47.891Z,992.71
2019-03-17T05:35:47.892Z,992.67
2019-03-17T05:36:47.858Z,992.73
2019-03-17T05:37:47.848Z,992.75
2019-03-17T05:38:47.836Z,992.75
2019-03-17T05:39:47.825Z,992.73
2019-03-17T05:40:47.842Z,992.75
2019-03-17T05:41:47.806Z,992.76
2019-03-17T05:42:47.794Z,992.80
2019-03-17T05:43:47.783Z,992.75
2019-03-17T05:44:47.771Z,992.75
2019-03-17T05:45:47.797Z,992.76
2019-03-17T05:46:47.752Z,992.72
2019-03-17T05:47:47.743Z,992.68
2019-03-17T05:48:47.728Z,992.67
2019-03-17T05:49:47.722Z,992.67
2019-03-17T05:50:47.737Z,992.61
2019-03-17T05:51:47.698Z,992.67
2019-03-17T05:52:47.689Z,992.63
2019-03-17T05:53:47.677Z,992.65
2019-03-17T05:54:47.666Z,992.71
2019-03-17T05:55:47.680Z,992.68
2019-03-17T05:56:47.646Z,992.67
2019-03-17T05:57:47.636Z,992.67
2019-03-17T05:58:47.627Z,992.68
2019-03-17T05:59:47.611Z,992.63
2019-03-17T06:00:47.625Z,992.69
2019-03-17T06:01:47.590Z,992.64
2019-03-17T06:02:47.578Z,992.64
2019-03-17T06:03:47.569Z,992.57
2019-03-17T06:04:47.560Z,992.70
2019-03-17T06:05:47.574Z,992.75
2019-03-17T06:06:47.536Z,992.69
2019-03-17T06:07:47.526Z,992.68
2019-03-17T06:08:47.515Z,992.73
2019-03-17T06:09:47.501Z,992.64
2019-03-17T06:10:47.515Z,992.62
2019-03-17T06:11:47.479Z,992.73
2019-03-17T06:12:47.475Z,992.57
2019-03-17T06:13:47.458Z,992.62
2019-03-17T06:14:47.450Z,992.61
2019-03-17T06:15:47.462Z,992.62
2019-03-17T06:16:47.427Z,992.64
2019-03-17T06:17:47.415Z,992.65
2019-03-17T06:18:47.404Z,992.69
2019-03-17T06:19:47.395Z,992.65
2019-03-17T06:20:47.405Z,992.67
2019-03-17T06:21:47.375Z,992.73
2019-03-17T06:22:47.362Z,992.67
2019-03-17T06:23:47.351Z,992.67
2019-03-17T06:24:47.337Z,992.69
2019-03-17T06:25:47.353Z,992.70
2019-03-17T06:26:47.326Z,992.69
2019-03-17T06:27:47.308Z,992.67
2019-03-17T06:28:47.294Z,992.73
2019-03-17T06:29:47.286Z,992.64
2019-03-17T06:30:47.304Z,992.73
2019-03-17T06:31:47.262Z,992.71
2019-03-17T06:32:47.254Z,992.71
2019-03-17T06:33:47.238Z,992.72
2019-03-17T06:34:47.226Z,992.70
2019-03-17T06:35:47.246Z,992.73
2019-03-17T06:36:47.206Z,992.79
2019-03-17T06:37:47.194Z,992.72
2019-03-17T06:38:47.184Z,992.82
2019-03-17T06:39:47.172Z,992.80
2019-03-17T06:40:47.197Z,992.77
2019-03-17T06:41:47.151Z,992.74
2019-03-17T06:42:47.158Z,992.70
2019-03-17T06:43:47.128Z,992.77
2019-03-17T06:44:47.115Z,992.79
2019-03-17T06:45:47.132Z,992.76
2019-03-17T06:46:47.116Z,992.76
2019-03-17T06:47:47.084Z,992.79
2019-03-17T06:48:47.072Z,992.74
2019-03-17T06:49:47.064Z,992.78
2019-03-17T06:50:47.077Z,992.79
2019-03-17T06:51:47.042Z,992.71
2019-03-17T06:52:47.032Z,992.79
2019-03-17T06:53:56.195Z,992.59
2019-03-17T06:54:48.009Z,992.66
2019-03-17T06:55:47.026Z,992.71
2019-03-17T06:56:46.988Z,992.65
2019-03-17T06:57:46.978Z,992.64
2019-03-17T06:58:47.002Z,992.58
2019-03-17T06:59:46.962Z,992.67
2019-03-17T07:00:46.941Z,992.65
2019-03-17T07:01:46.934Z,992.64
2019-03-17T07:02:46.921Z,992.63
2019-03-17T07:03:46.910Z,992.68
2019-03-17T07:04:46.927Z,992.70
2019-03-17T07:05:46.888Z,992.68
2019-03-17T07:06:46.881Z,992.67
2019-03-17T07:07:46.875Z,992.61
2019-03-17T07:08:46.856Z,992.55
2019-03-17T07:09:46.889Z,992.60
2019-03-17T07:10:46.834Z,992.52
2019-03-17T07:11:46.822Z,992.56
2019-03-17T07:12:46.812Z,992.63
2019-03-17T07:13:46.801Z,992.65
2019-03-17T07:14:46.790Z,992.62
2019-03-17T07:15:46.808Z,992.66
2019-03-17T07:16:46.769Z,992.57
2019-03-17T07:17:46.759Z,992.57
2019-03-17T07:18:46.746Z,992.58
2019-03-17T07:19:46.738Z,992.60
2019-03-17T07:20:46.754Z,992.66
2019-03-17T07:21:46.713Z,992.60
2019-03-17T07:22:46.706Z,992.60
2019-03-17T07:23:46.692Z,992.53
2019-03-17T07:24:46.688Z,992.53
2019-03-17T07:25:46.709Z,992.58
2019-03-17T07:26:46.659Z,992.63
2019-03-17T07:27:46.649Z,992.61
2019-03-17T07:28:46.639Z,992.66
2019-03-17T07:29:49.398Z,992.65
2019-03-17T07:30:46.615Z,992.60
2019-03-17T07:31:46.649Z,992.54
2019-03-17T07:32:46.593Z,992.58
2019-03-17T07:33:46.582Z,992.71
2019-03-17T07:34:46.571Z,992.64
2019-03-17T07:35:46.596Z,992.71
2019-03-17T07:36:46.622Z,992.62
2019-03-17T07:37:56.226Z,992.71
2019-03-17T07:38:47.528Z,992.68
2019-03-17T07:39:46.519Z,992.61
2019-03-17T07:40:46.506Z,992.62
2019-03-17T07:41:46.510Z,992.66
2019-03-17T07:42:46.512Z,992.66
2019-03-17T07:43:46.486Z,992.67
2019-03-17T07:44:46.462Z,992.64
2019-03-17T07:45:46.450Z,992.64
2019-03-17T07:46:46.443Z,992.57
2019-03-17T07:47:46.455Z,992.57
2019-03-17T07:48:46.418Z,992.58
2019-03-17T07:49:46.407Z,992.63
2019-03-17T07:50:46.395Z,992.60
2019-03-17T07:51:46.385Z,992.62
2019-03-17T07:52:46.412Z,992.69
2019-03-17T07:53:46.380Z,992.54
2019-03-17T07:54:46.360Z,992.63
2019-03-17T07:55:46.339Z,992.53
2019-03-17T07:56:46.333Z,992.57
2019-03-17T07:57:46.318Z,992.67
2019-03-17T07:58:46.333Z,992.48
2019-03-17T07:59:46.315Z,992.59
2019-03-17T08:00:46.286Z,992.52
2019-03-17T08:01:46.277Z,992.52
2019-03-17T08:02:46.268Z,992.56
2019-03-17T08:03:46.289Z,992.54
2019-03-17T08:04:46.402Z,992.48
2019-03-17T08:05:46.238Z,992.52
2019-03-17T08:06:46.229Z,992.51
2019-03-17T08:07:46.210Z,992.53
2019-03-17T08:08:46.320Z,992.59
2019-03-17T08:09:46.225Z,992.51
2019-03-17T08:10:46.190Z,992.48
2019-03-17T08:11:46.177Z,992.50
2019-03-17T08:12:46.157Z,992.58
2019-03-17T08:13:46.147Z,992.56
2019-03-17T08:14:46.171Z,992.45
2019-03-17T08:15:46.173Z,992.33
2019-03-17T08:16:46.114Z,992.72
2019-03-17T08:17:46.104Z,992.50
2019-03-17T08:18:46.094Z,992.51
2019-03-17T08:19:46.125Z,992.44
2019-03-17T08:20:46.101Z,992.52
2019-03-17T08:21:46.060Z,992.48
2019-03-17T08:22:46.049Z,992.58
2019-03-17T08:23:46.042Z,992.58
2019-03-17T08:24:46.030Z,992.57
2019-03-17T08:25:46.042Z,992.56
2019-03-17T08:26:46.007Z,992.60
2019-03-17T08:27:45.997Z,992.62
2019-03-17T08:28:45.985Z,992.40
2019-03-17T08:29:45.990Z,992.61
2019-03-17T08:30:53.071Z,992.58
2019-03-17T08:31:46.951Z,992.56
2019-03-17T08:32:45.941Z,992.52
2019-03-17T08:33:45.931Z,992.53
2019-03-17T08:34:46.025Z,992.50
2019-03-17T08:35:45.949Z,992.47
2019-03-17T08:36:47.114Z,992.43
2019-03-17T08:37:45.888Z,992.52
2019-03-17T08:38:45.877Z,992.56
2019-03-17T08:39:45.871Z,992.48
2019-03-17T08:40:45.858Z,992.55
2019-03-17T08:41:45.875Z,992.54
2019-03-17T08:42:45.833Z,992.43
2019-03-17T08:43:54.116Z,992.56
2019-03-17T08:44:46.819Z,992.54
2019-03-17T08:45:45.804Z,992.50
2019-03-17T08:46:45.827Z,992.59
2019-03-17T08:47:57.379Z,992.58
2019-03-17T08:48:46.766Z,992.60
2019-03-17T08:49:45.757Z,992.67
2019-03-17T08:50:45.747Z,992.61
2019-03-17T08:51:45.740Z,992.66
2019-03-17T08:52:45.753Z,992.62
2019-03-17T08:53:45.716Z,992.59
2019-03-17T08:54:45.702Z,992.63
2019-03-17T08:55:45.693Z,992.61
2019-03-17T08:56:45.680Z,992.60
2019-03-17T08:57:45.706Z,992.64
2019-03-17T08:58:45.678Z,992.61
2019-03-17T08:59:45.646Z,992.61
2019-03-17T09:00:45.634Z,992.65
2019-03-17T09:01:47.581Z,992.60
2019-03-17T09:02:45.615Z,992.69
2019-03-17T09:03:45.632Z,992.63
2019-03-17T09:04:45.591Z,992.72
2019-03-17T09:05:45.583Z,992.74
2019-03-17T09:06:45.571Z,992.77
2019-03-17T09:07:45.561Z,992.68
2019-03-17T09:08:45.587Z,992.72
2019-03-17T09:09:45.537Z,992.78
2019-03-17T09:10:45.528Z,992.63
2019-03-17T09:11:45.515Z,992.64
2019-03-17T09:12:45.506Z,992.67
2019-03-17T09:13:45.495Z,992.72
2019-03-17T09:14:45.508Z,992.65
2019-03-17T09:15:45.473Z,992.76
2019-03-17T09:16:45.464Z,992.59
2019-03-17T09:17:45.453Z,992.66
2019-03-17T09:18:45.449Z,992.61
2019-03-17T09:19:45.479Z,992.57
2019-03-17T09:20:45.427Z,992.61
2019-03-17T09:21:45.407Z,992.60
2019-03-17T09:22:45.396Z,992.65
2019-03-17T09:23:45.384Z,992.78
2019-03-17T09:24:45.372Z,992.75
2019-03-17T09:25:45.387Z,992.72
2019-03-17T09:26:45.356Z,992.70
2019-03-17T09:27:45.340Z,992.65
2019-03-17T09:28:45.331Z,992.70
2019-03-17T09:29:45.320Z,992.68
2019-03-17T09:30:45.346Z,992.69
2019-03-17T09:31:45.302Z,992.82
2019-03-17T09:32:45.287Z,992.72
2019-03-17T09:33:45.277Z,992.59
2019-03-17T09:34:45.266Z,992.66
2019-03-17T09:35:45.255Z,992.65
2019-03-17T09:36:45.275Z,992.68
2019-03-17T09:37:45.243Z,992.57
2019-03-17T09:38:47.442Z,992.61
2019-03-17T09:39:45.212Z,992.65
2019-03-17T09:40:45.205Z,992.59
2019-03-17T09:41:45.217Z,992.55
2019-03-17T09:42:45.184Z,992.54
2019-03-17T09:43:45.168Z,992.59
2019-03-17T09:44:45.159Z,992.59
2019-03-17T09:45:45.148Z,992.56
2019-03-17T09:46:45.175Z,992.60
2019-03-17T09:47:45.129Z,992.50
2019-03-17T09:48:45.134Z,992.71
2019-03-17T09:49:45.108Z,992.64
2019-03-17T09:50:45.094Z,992.66
2019-03-17T09:51:45.083Z,992.57
2019-03-17T09:52:45.112Z,992.49
2019-03-17T09:53:45.136Z,992.57
2019-03-17T09:54:45.054Z,992.65
2019-03-17T09:55:45.040Z,992.59
2019-03-17T09:56:45.030Z,992.63
2019-03-17T09:57:45.060Z,992.61
2019-03-17T09:58:45.736Z,992.61
2019-03-17T09:59:45.004Z,992.59
2019-03-17T10:00:44.987Z,992.60
2019-03-17T10:01:44.976Z,992.74
2019-03-17T10:02:44.964Z,992.67
2019-03-17T10:03:44.982Z,992.66
2019-03-17T10:04:44.945Z,992.65
2019-03-17T10:05:44.937Z,992.58
2019-03-17T10:06:44.921Z,992.56
2019-03-17T10:07:45.005Z,992.59
2019-03-17T10:08:44.939Z,992.56
2019-03-17T10:09:44.892Z,992.60
2019-03-17T10:10:44.882Z,992.57
2019-03-17T10:11:44.865Z,992.60
2019-03-17T10:12:44.854Z,992.58
2019-03-17T10:13:44.880Z,992.64
2019-03-17T10:14:44.843Z,992.61
2019-03-17T10:15:44.826Z,992.55
2019-03-17T10:16:51.845Z,992.62
2019-03-17T10:17:44.801Z,992.58
2019-03-17T10:18:44.794Z,992.66
2019-03-17T10:19:44.802Z,992.81
2019-03-17T10:20:44.767Z,992.68
2019-03-17T10:21:44.767Z,992.67
2019-03-17T10:22:44.890Z,992.58
2019-03-17T10:23:44.748Z,992.65
2019-03-17T10:24:44.771Z,992.74
2019-03-17T10:25:44.719Z,992.71
2019-03-17T10:26:44.702Z,992.69
2019-03-17T10:27:44.692Z,992.77
2019-03-17T10:28:44.679Z,992.76
2019-03-17T10:29:44.668Z,992.64
2019-03-17T10:30:44.684Z,992.62
2019-03-17T10:31:44.647Z,992.66
2019-03-17T10:32:44.639Z,992.85
2019-03-17T10:33:45.707Z,992.68
2019-03-17T10:34:44.614Z,992.65
2019-03-17T10:35:44.760Z,992.72
2019-03-17T10:36:44.591Z,992.77
2019-03-17T10:37:44.584Z,992.61
2019-03-17T10:38:44.573Z,992.69
2019-03-17T10:39:44.560Z,992.73
2019-03-17T10:40:44.548Z,992.65
2019-03-17T10:41:44.593Z,992.73
2019-03-17T10:42:44.527Z,992.79
2019-03-17T10:43:44.515Z,992.71
2019-03-17T10:44:44.506Z,992.67
2019-03-17T10:45:44.497Z,992.78
2019-03-17T10:46:44.515Z,992.77
2019-03-17T10:47:44.473Z,992.78
2019-03-17T10:48:44.463Z,992.75
2019-03-17T10:49:44.451Z,992.66
2019-03-17T10:50:49.589Z,992.72
2019-03-17T10:51:45.464Z,992.66
2019-03-17T10:52:44.423Z,992.64
2019-03-17T10:53:44.411Z,992.73
2019-03-17T10:54:44.398Z,992.76
2019-03-17T10:55:44.389Z,992.67
2019-03-17T10:56:44.380Z,992.85
2019-03-17T10:57:44.391Z,992.73
2019-03-17T10:58:44.356Z,992.55
2019-03-17T10:59:44.344Z,992.60
2019-03-17T11:00:58.896Z,992.60
2019-03-17T11:01:44.327Z,992.64
2019-03-17T11:02:44.351Z,992.62
2019-03-17T11:03:44.303Z,992.74
2019-03-17T11:04:44.291Z,992.83
2019-03-17T11:05:44.281Z,992.85
2019-03-17T11:06:44.273Z,992.77
2019-03-17T11:07:44.261Z,992.85
2019-03-17T11:08:44.274Z,992.88
2019-03-17T11:09:44.239Z,992.93
2019-03-17T11:10:44.228Z,992.92
2019-03-17T11:11:44.219Z,992.98
2019-03-17T11:12:44.209Z,992.90
2019-03-17T11:13:44.222Z,992.88
2019-03-17T11:14:44.273Z,992.93
2019-03-17T11:15:44.177Z,992.81
2019-03-17T11:16:44.165Z,992.93
2019-03-17T11:17:44.155Z,992.89
2019-03-17T11:18:44.191Z,992.88
2019-03-17T11:19:44.138Z,992.83
2019-03-17T11:20:44.128Z,992.88
2019-03-17T11:21:44.108Z,992.84
2019-03-17T11:22:44.099Z,992.82
2019-03-17T11:23:44.090Z,992.83
2019-03-17T11:24:44.100Z,992.82
2019-03-17T11:25:44.066Z,992.79
2019-03-17T11:26:44.054Z,992.75
2019-03-17T11:27:44.049Z,992.77
2019-03-17T11:28:44.034Z,992.76
2019-03-17T11:29:58.902Z,992.69
2019-03-17T11:30:44.010Z,992.87
2019-03-17T11:32:06.925Z,992.94
2019-03-17T11:32:43.989Z,992.79
2019-03-17T11:33:43.978Z,992.77
2019-03-17T11:34:43.967Z,992.75
2019-03-17T11:35:43.985Z,992.78
2019-03-17T11:36:43.946Z,992.87
2019-03-17T11:37:43.935Z,992.83
2019-03-17T11:38:43.924Z,992.90
2019-03-17T11:39:43.915Z,992.88
2019-03-17T11:40:43.928Z,992.80
2019-03-17T11:41:43.894Z,992.87
2019-03-17T11:42:43.888Z,992.79
2019-03-17T11:43:43.872Z,992.97
2019-03-17T11:44:43.861Z,992.84
2019-03-17T11:45:43.874Z,992.85
2019-03-17T11:46:43.839Z,992.75
2019-03-17T11:47:43.827Z,992.97
2019-03-17T11:48:43.816Z,992.85
2019-03-17T11:49:46.058Z,993.07
2019-03-17T11:50:43.837Z,992.99
2019-03-17T11:51:43.783Z,992.83
2019-03-17T11:52:43.773Z,992.96
2019-03-17T11:53:43.762Z,992.99
2019-03-17T11:54:43.752Z,992.91
2019-03-17T11:55:43.741Z,993.08
2019-03-17T11:56:43.766Z,992.93
2019-03-17T11:57:43.721Z,993.03
2019-03-17T11:58:43.708Z,993.08
2019-03-17T11:59:43.698Z,993.06
2019-03-17T12:00:43.689Z,993.13
2019-03-17T12:01:43.705Z,993.13
2019-03-17T12:02:43.670Z,993.10
2019-03-17T12:03:43.675Z,993.10
2019-03-17T12:04:43.649Z,993.09
2019-03-17T12:05:43.634Z,993.09
2019-03-17T12:06:43.661Z,993.15
2019-03-17T12:07:43.613Z,993.01
2019-03-17T12:08:43.602Z,993.02
2019-03-17T12:09:50.067Z,992.99
2019-03-17T12:10:44.582Z,992.94
2019-03-17T12:11:43.570Z,992.93
2019-03-17T12:12:43.583Z,992.81
2019-03-17T12:13:43.550Z,992.86
2019-03-17T12:14:43.539Z,992.86
2019-03-17T12:15:43.535Z,993.01
2019-03-17T12:16:43.517Z,992.92
2019-03-17T12:17:43.543Z,992.99
2019-03-17T12:18:43.493Z,992.97
2019-03-17T12:19:43.495Z,992.88
2019-03-17T12:20:43.475Z,992.98
2019-03-17T12:21:43.468Z,992.99
2019-03-17T12:22:43.453Z,992.96
2019-03-17T12:23:43.466Z,992.92
2019-03-17T12:24:43.431Z,992.87
2019-03-17T12:25:43.420Z,992.99
2019-03-17T12:26:43.412Z,992.94
2019-03-17T12:27:43.399Z,992.93
2019-03-17T12:28:43.421Z,992.98